sensor_id;sensor_type;location;lat;lon;timestamp;pressure;altitude;pressure_sealevel;temperature;humidity
29825;BME280;16713;52.916;12.834;2023-04-30T00:00:27;101434.06;;;6.88;68.57
29825;BME280;16713;52.916;12.834;2023-04-30T00:02:53;101439.09;;;6.72;68.55
29825;BME280;16713;52.916;12.834;2023-04-30T00:05:20;101437.81;;;6.70;67.77
29825;BME280;16713;52.916;12.834;2023-04-30T00:07:47;101438.34;;;6.58;68.96
29825;BME280;16713;52.916;12.834;2023-04-30T00:10:13;101438.66;;;6.57;68.13
29825;BME280;16713;52.916;12.834;2023-04-30T00:12:39;101435.25;;;6.51;69.16
29825;BME280;16713;52.916;12.834;2023-04-30T00:15:06;101442.00;;;6.54;68.27
29825;BME280;16713;52.916;12.834;2023-04-30T00:17:33;101435.38;;;6.46;69.44
29825;BME280;16713;52.916;12.834;2023-04-30T00:19:59;101448.25;;;6.54;69.74
29825;BME280;16713;52.916;12.834;2023-04-30T00:22:26;101448.25;;;6.54;68.88
29825;BME280;16713;52.916;12.834;2023-04-30T00:24:52;101450.00;;;6.50;68.33
29825;BME280;16713;52.916;12.834;2023-04-30T00:27:19;101457.25;;;6.55;68.67
29825;BME280;16713;52.916;12.834;2023-04-30T00:29:46;101461.00;;;6.67;69.48
29825;BME280;16713;52.916;12.834;2023-04-30T00:32:12;101463.69;;;6.81;67.55
29825;BME280;16713;52.916;12.834;2023-04-30T00:34:39;101463.06;;;6.84;68.18
29825;BME280;16713;52.916;12.834;2023-04-30T00:37:06;101460.53;;;6.87;68.23
29825;BME280;16713;52.916;12.834;2023-04-30T00:39:32;101461.63;;;6.86;67.97
29825;BME280;16713;52.916;12.834;2023-04-30T00:41:59;101463.13;;;6.92;67.10
29825;BME280;16713;52.916;12.834;2023-04-30T00:44:26;101470.19;;;6.93;66.43
29825;BME280;16713;52.916;12.834;2023-04-30T00:46:52;101464.59;;;6.98;67.28
29825;BME280;16713;52.916;12.834;2023-04-30T00:49:19;101469.13;;;7.03;67.88
29825;BME280;16713;52.916;12.834;2023-04-30T00:51:46;101470.28;;;7.10;67.11
29825;BME280;16713;52.916;12.834;2023-04-30T00:54:13;101473.00;;;7.10;66.88
29825;BME280;16713;52.916;12.834;2023-04-30T00:56:40;101468.84;;;7.13;66.83
29825;BME280;16713;52.916;12.834;2023-04-30T00:59:06;101471.91;;;7.11;67.32
29825;BME280;16713;52.916;12.834;2023-04-30T01:01:33;101466.44;;;7.11;66.69
29825;BME280;16713;52.916;12.834;2023-04-30T01:04:00;101478.69;;;7.22;65.87
29825;BME280;16713;52.916;12.834;2023-04-30T01:06:27;101480.47;;;7.27;66.71
29825;BME280;16713;52.916;12.834;2023-04-30T01:08:53;101476.94;;;7.26;65.85
29825;BME280;16713;52.916;12.834;2023-04-30T01:14:21;101486.47;;;7.37;66.04
29825;BME280;16713;52.916;12.834;2023-04-30T01:16:59;101485.94;;;7.27;66.00
29825;BME280;16713;52.916;12.834;2023-04-30T01:22:03;101490.13;;;7.33;65.54
29825;BME280;16713;52.916;12.834;2023-04-30T01:24:52;101497.22;;;7.34;65.74
29825;BME280;16713;52.916;12.834;2023-04-30T01:30:13;101500.56;;;7.31;64.86
29825;BME280;16713;52.916;12.834;2023-04-30T01:32:40;101503.47;;;7.34;64.94
29825;BME280;16713;52.916;12.834;2023-04-30T01:35:07;101503.31;;;7.31;64.93
29825;BME280;16713;52.916;12.834;2023-04-30T01:37:46;101499.56;;;7.27;64.78
29825;BME280;16713;52.916;12.834;2023-04-30T01:40:29;101511.25;;;7.19;64.91
29825;BME280;16713;52.916;12.834;2023-04-30T01:43:05;101500.00;;;7.12;65.91
29825;BME280;16713;52.916;12.834;2023-04-30T01:46:18;101511.25;;;7.19;64.34
29825;BME280;16713;52.916;12.834;2023-04-30T01:49:10;101517.50;;;7.19;64.83
29825;BME280;16713;52.916;12.834;2023-04-30T01:51:40;101521.19;;;7.15;64.91
29825;BME280;16713;52.916;12.834;2023-04-30T01:57:19;101527.81;;;7.22;65.57
29825;BME280;16713;52.916;12.834;2023-04-30T01:59:46;101522.16;;;7.19;66.25
29825;BME280;16713;52.916;12.834;2023-04-30T02:02:13;101528.31;;;7.24;66.09
29825;BME280;16713;52.916;12.834;2023-04-30T02:04:39;101526.09;;;7.35;66.16
29825;BME280;16713;52.916;12.834;2023-04-30T02:07:06;101532.50;;;7.30;66.19
29825;BME280;16713;52.916;12.834;2023-04-30T02:09:33;101537.97;;;7.30;65.00
29825;BME280;16713;52.916;12.834;2023-04-30T02:11:59;101541.13;;;7.24;65.88
29825;BME280;16713;52.916;12.834;2023-04-30T02:14:26;101545.91;;;7.18;65.05
29825;BME280;16713;52.916;12.834;2023-04-30T02:16:52;101543.13;;;7.10;65.49
29825;BME280;16713;52.916;12.834;2023-04-30T02:19:19;101551.19;;;7.15;65.67
29825;BME280;16713;52.916;12.834;2023-04-30T02:21:45;101549.09;;;7.12;66.07
29825;BME280;16713;52.916;12.834;2023-04-30T02:24:11;101549.75;;;6.95;65.12
29825;BME280;16713;52.916;12.834;2023-04-30T02:26:38;101553.91;;;6.93;66.38
29825;BME280;16713;52.916;12.834;2023-04-30T02:29:04;101549.88;;;6.90;65.41
29825;BME280;16713;52.916;12.834;2023-04-30T02:31:31;101553.72;;;6.89;65.36
29825;BME280;16713;52.916;12.834;2023-04-30T02:33:57;101552.72;;;6.85;65.52
29825;BME280;16713;52.916;12.834;2023-04-30T02:36:24;101554.94;;;6.83;66.19
29825;BME280;16713;52.916;12.834;2023-04-30T02:38:50;101559.84;;;6.73;65.67
29825;BME280;16713;52.916;12.834;2023-04-30T02:41:16;101563.25;;;6.78;65.72
29825;BME280;16713;52.916;12.834;2023-04-30T02:43:43;101554.69;;;6.71;66.21
29825;BME280;16713;52.916;12.834;2023-04-30T02:46:09;101557.53;;;6.66;66.47
29825;BME280;16713;52.916;12.834;2023-04-30T02:48:36;101563.59;;;6.63;65.75
29825;BME280;16713;52.916;12.834;2023-04-30T02:51:02;101566.66;;;6.62;65.71
29825;BME280;16713;52.916;12.834;2023-04-30T02:53:29;101565.88;;;6.48;66.17
29825;BME280;16713;52.916;12.834;2023-04-30T02:55:56;101564.53;;;6.59;65.78
29825;BME280;16713;52.916;12.834;2023-04-30T02:58:24;101567.25;;;6.59;66.87
29825;BME280;16713;52.916;12.834;2023-04-30T03:00:50;101568.78;;;6.51;65.66
29825;BME280;16713;52.916;12.834;2023-04-30T03:03:17;101568.81;;;6.38;66.03
29825;BME280;16713;52.916;12.834;2023-04-30T03:05:43;101572.13;;;6.48;66.34
29825;BME280;16713;52.916;12.834;2023-04-30T03:08:10;101568.31;;;6.36;66.51
29825;BME280;16713;52.916;12.834;2023-04-30T03:10:36;101564.97;;;6.39;67.45
29825;BME280;16713;52.916;12.834;2023-04-30T03:13:03;101569.19;;;6.45;65.95
29825;BME280;16713;52.916;12.834;2023-04-30T03:15:31;101572.56;;;6.28;66.19
29825;BME280;16713;52.916;12.834;2023-04-30T03:17:58;101583.22;;;6.24;66.50
29825;BME280;16713;52.916;12.834;2023-04-30T03:20:25;101577.56;;;6.21;66.94
29825;BME280;16713;52.916;12.834;2023-04-30T03:22:51;101586.88;;;6.33;67.41
29825;BME280;16713;52.916;12.834;2023-04-30T03:25:18;101588.47;;;6.21;65.90
29825;BME280;16713;52.916;12.834;2023-04-30T03:27:44;101590.50;;;6.15;66.76
29825;BME280;16713;52.916;12.834;2023-04-30T03:30:11;101588.19;;;6.09;67.69
29825;BME280;16713;52.916;12.834;2023-04-30T03:32:37;101591.22;;;6.07;66.76
29825;BME280;16713;52.916;12.834;2023-04-30T03:35:04;101591.47;;;6.06;67.84
29825;BME280;16713;52.916;12.834;2023-04-30T03:37:31;101595.84;;;6.07;67.34
29825;BME280;16713;52.916;12.834;2023-04-30T03:39:57;101604.31;;;6.05;67.87
29825;BME280;16713;52.916;12.834;2023-04-30T03:42:24;101604.00;;;6.07;66.98
29825;BME280;16713;52.916;12.834;2023-04-30T03:44:50;101598.97;;;6.00;66.72
29825;BME280;16713;52.916;12.834;2023-04-30T03:47:17;101608.81;;;5.96;67.77
29825;BME280;16713;52.916;12.834;2023-04-30T03:49:43;101604.81;;;5.94;67.14
29825;BME280;16713;52.916;12.834;2023-04-30T03:52:10;101611.56;;;5.83;67.38
29825;BME280;16713;52.916;12.834;2023-04-30T03:54:36;101612.25;;;5.75;67.88
29825;BME280;16713;52.916;12.834;2023-04-30T03:57:03;101611.06;;;5.94;67.22
29825;BME280;16713;52.916;12.834;2023-04-30T03:59:30;101612.66;;;5.82;68.03
29825;BME280;16713;52.916;12.834;2023-04-30T04:01:59;101611.84;;;5.81;67.60
29825;BME280;16713;52.916;12.834;2023-04-30T04:04:26;101614.88;;;5.80;68.97
29825;BME280;16713;52.916;12.834;2023-04-30T04:06:53;101612.47;;;5.78;67.52
29825;BME280;16713;52.916;12.834;2023-04-30T04:09:19;101612.84;;;5.85;68.04
29825;BME280;16713;52.916;12.834;2023-04-30T04:11:45;101614.28;;;5.83;68.35
29825;BME280;16713;52.916;12.834;2023-04-30T04:14:12;101621.63;;;5.82;67.27
29825;BME280;16713;52.916;12.834;2023-04-30T04:16:38;101636.44;;;5.76;67.79
29825;BME280;16713;52.916;12.834;2023-04-30T04:19:05;101636.34;;;5.81;67.98
29825;BME280;16713;52.916;12.834;2023-04-30T04:21:31;101631.09;;;5.71;68.72
29825;BME280;16713;52.916;12.834;2023-04-30T04:23:58;101635.22;;;5.69;67.26
29825;BME280;16713;52.916;12.834;2023-04-30T04:26:25;101640.06;;;5.72;67.76
29825;BME280;16713;52.916;12.834;2023-04-30T04:28:51;101642.19;;;5.75;68.82
29825;BME280;16713;52.916;12.834;2023-04-30T04:31:18;101639.84;;;5.68;67.91
29825;BME280;16713;52.916;12.834;2023-04-30T04:33:45;101653.91;;;5.75;67.26
29825;BME280;16713;52.916;12.834;2023-04-30T04:36:12;101659.72;;;5.82;68.53
29825;BME280;16713;52.916;12.834;2023-04-30T04:38:38;101662.97;;;5.84;67.73
29825;BME280;16713;52.916;12.834;2023-04-30T04:41:05;101663.66;;;5.90;67.76
29825;BME280;16713;52.916;12.834;2023-04-30T04:43:31;101663.88;;;5.93;67.48
29825;BME280;16713;52.916;12.834;2023-04-30T04:45:58;101663.50;;;6.00;67.72
29825;BME280;16713;52.916;12.834;2023-04-30T04:48:24;101666.22;;;6.00;68.13
29825;BME280;16713;52.916;12.834;2023-04-30T04:50:51;101668.63;;;6.01;66.67
29825;BME280;16713;52.916;12.834;2023-04-30T04:53:18;101673.09;;;6.11;67.24
29825;BME280;16713;52.916;12.834;2023-04-30T04:55:44;101673.91;;;6.11;67.13
29825;BME280;16713;52.916;12.834;2023-04-30T04:58:11;101674.00;;;6.06;67.67
29825;BME280;16713;52.916;12.834;2023-04-30T05:00:38;101678.84;;;6.09;67.79
29825;BME280;16713;52.916;12.834;2023-04-30T05:03:04;101682.88;;;6.12;66.92
29825;BME280;16713;52.916;12.834;2023-04-30T05:05:31;101694.19;;;6.05;67.52
29825;BME280;16713;52.916;12.834;2023-04-30T05:07:57;101694.69;;;6.07;67.92
29825;BME280;16713;52.916;12.834;2023-04-30T05:10:24;101699.00;;;6.08;67.16
29825;BME280;16713;52.916;12.834;2023-04-30T05:12:50;101704.59;;;6.17;66.88
29825;BME280;16713;52.916;12.834;2023-04-30T05:15:17;101709.00;;;6.13;67.53
29825;BME280;16713;52.916;12.834;2023-04-30T05:17:43;101705.28;;;6.22;67.42
29825;BME280;16713;52.916;12.834;2023-04-30T05:20:11;101709.03;;;6.26;66.21
29825;BME280;16713;52.916;12.834;2023-04-30T05:22:38;101719.41;;;6.24;66.98
29825;BME280;16713;52.916;12.834;2023-04-30T05:25:04;101720.72;;;6.27;67.32
29825;BME280;16713;52.916;12.834;2023-04-30T05:27:31;101727.22;;;6.31;67.58
29825;BME280;16713;52.916;12.834;2023-04-30T05:29:58;101727.75;;;6.33;66.57
29825;BME280;16713;52.916;12.834;2023-04-30T05:32:25;101724.00;;;6.29;67.06
29825;BME280;16713;52.916;12.834;2023-04-30T05:34:52;101727.59;;;6.24;66.03
29825;BME280;16713;52.916;12.834;2023-04-30T05:37:19;101725.31;;;6.32;65.84
29825;BME280;16713;52.916;12.834;2023-04-30T05:39:47;101727.13;;;6.36;65.67
29825;BME280;16713;52.916;12.834;2023-04-30T05:42:14;101729.56;;;6.38;65.81
29825;BME280;16713;52.916;12.834;2023-04-30T05:44:40;101735.63;;;6.48;66.88
29825;BME280;16713;52.916;12.834;2023-04-30T05:47:07;101735.50;;;6.53;65.77
29825;BME280;16713;52.916;12.834;2023-04-30T05:49:33;101740.75;;;6.50;65.85
29825;BME280;16713;52.916;12.834;2023-04-30T05:52:01;101754.09;;;6.65;65.98
29825;BME280;16713;52.916;12.834;2023-04-30T05:54:29;101753.50;;;6.68;65.87
29825;BME280;16713;52.916;12.834;2023-04-30T05:56:56;101749.53;;;6.74;64.17
29825;BME280;16713;52.916;12.834;2023-04-30T05:59:23;101752.78;;;6.62;64.20
29825;BME280;16713;52.916;12.834;2023-04-30T06:01:49;101752.59;;;6.86;64.26
29825;BME280;16713;52.916;12.834;2023-04-30T06:04:16;101762.16;;;6.97;63.57
29825;BME280;16713;52.916;12.834;2023-04-30T06:06:42;101759.44;;;6.97;63.16
29825;BME280;16713;52.916;12.834;2023-04-30T06:09:09;101754.00;;;6.97;63.24
29825;BME280;16713;52.916;12.834;2023-04-30T06:11:35;101764.84;;;7.10;62.43
29825;BME280;16713;52.916;12.834;2023-04-30T06:14:09;101764.84;;;7.10;62.27
29825;BME280;16713;52.916;12.834;2023-04-30T06:16:35;101768.50;;;7.19;61.69
29825;BME280;16713;52.916;12.834;2023-04-30T06:19:02;101765.88;;;7.28;61.47
29825;BME280;16713;52.916;12.834;2023-04-30T06:21:28;101769.28;;;7.33;61.16
29825;BME280;16713;52.916;12.834;2023-04-30T06:23:54;101766.28;;;7.08;61.42
29825;BME280;16713;52.916;12.834;2023-04-30T06:26:21;101777.63;;;7.50;61.17
29825;BME280;16713;52.916;12.834;2023-04-30T06:28:47;101787.75;;;7.36;60.35
29825;BME280;16713;52.916;12.834;2023-04-30T06:31:14;101785.97;;;7.32;60.48
29825;BME280;16713;52.916;12.834;2023-04-30T06:33:40;101792.47;;;7.58;59.20
29825;BME280;16713;52.916;12.834;2023-04-30T06:36:07;101792.81;;;7.78;58.45
29825;BME280;16713;52.916;12.834;2023-04-30T06:38:33;101797.13;;;7.79;59.56
29825;BME280;16713;52.916;12.834;2023-04-30T06:41:00;101795.94;;;7.86;57.92
29825;BME280;16713;52.916;12.834;2023-04-30T06:43:26;101794.19;;;7.90;56.52
29825;BME280;16713;52.916;12.834;2023-04-30T06:45:52;101807.91;;;8.20;57.42
29825;BME280;16713;52.916;12.834;2023-04-30T06:48:19;101815.00;;;8.21;57.13
29825;BME280;16713;52.916;12.834;2023-04-30T06:50:46;101813.25;;;8.25;56.68
29825;BME280;16713;52.916;12.834;2023-04-30T06:53:13;101819.13;;;8.41;55.65
29825;BME280;16713;52.916;12.834;2023-04-30T06:55:40;101806.59;;;8.40;56.15
29825;BME280;16713;52.916;12.834;2023-04-30T06:58:07;101809.09;;;8.58;55.34
29825;BME280;16713;52.916;12.834;2023-04-30T07:00:34;101815.97;;;8.78;56.66
29825;BME280;16713;52.916;12.834;2023-04-30T07:03:01;101813.84;;;8.75;55.65
29825;BME280;16713;52.916;12.834;2023-04-30T07:05:29;101822.31;;;8.95;53.61
29825;BME280;16713;52.916;12.834;2023-04-30T07:07:57;101826.19;;;9.03;53.82
29825;BME280;16713;52.916;12.834;2023-04-30T07:10:23;101816.09;;;9.12;52.81
29825;BME280;16713;52.916;12.834;2023-04-30T07:12:50;101827.75;;;9.26;53.48
29825;BME280;16713;52.916;12.834;2023-04-30T07:15:16;101824.75;;;9.45;49.94
29825;BME280;16713;52.916;12.834;2023-04-30T07:17:43;101847.78;;;9.69;51.27
29825;BME280;16713;52.916;12.834;2023-04-30T07:20:11;101833.41;;;9.47;50.33
29825;BME280;16713;52.916;12.834;2023-04-30T07:22:40;101850.41;;;9.83;50.58
29825;BME280;16713;52.916;12.834;2023-04-30T07:25:09;101847.97;;;9.90;48.70
29825;BME280;16713;52.916;12.834;2023-04-30T07:27:37;101856.69;;;10.00;50.40
29825;BME280;16713;52.916;12.834;2023-04-30T07:30:04;101858.63;;;10.08;50.71
29825;BME280;16713;52.916;12.834;2023-04-30T07:32:30;101847.16;;;10.15;49.41
29825;BME280;16713;52.916;12.834;2023-04-30T07:34:57;101857.94;;;10.28;49.59
29825;BME280;16713;52.916;12.834;2023-04-30T07:37:23;101853.94;;;10.34;48.31
29825;BME280;16713;52.916;12.834;2023-04-30T07:39:50;101856.66;;;10.34;47.54
29825;BME280;16713;52.916;12.834;2023-04-30T07:42:16;101852.81;;;10.18;48.58
29825;BME280;16713;52.916;12.834;2023-04-30T07:44:42;101852.97;;;10.13;49.51
29825;BME280;16713;52.916;12.834;2023-04-30T07:47:09;101858.91;;;10.41;49.08
29825;BME280;16713;52.916;12.834;2023-04-30T07:49:35;101854.56;;;10.48;49.56
29825;BME280;16713;52.916;12.834;2023-04-30T07:52:02;101865.69;;;10.43;48.84
29825;BME280;16713;52.916;12.834;2023-04-30T07:54:29;101867.59;;;10.43;48.49
29825;BME280;16713;52.916;12.834;2023-04-30T07:56:55;101878.44;;;10.65;47.29
29825;BME280;16713;52.916;12.834;2023-04-30T07:59:21;101868.81;;;10.88;48.59
29825;BME280;16713;52.916;12.834;2023-04-30T08:01:50;101867.53;;;10.86;48.89
29825;BME280;16713;52.916;12.834;2023-04-30T08:04:16;101873.63;;;10.91;47.94
29825;BME280;16713;52.916;12.834;2023-04-30T08:06:43;101874.19;;;10.76;47.36
29825;BME280;16713;52.916;12.834;2023-04-30T08:09:10;101881.28;;;10.86;46.83
29825;BME280;16713;52.916;12.834;2023-04-30T08:11:36;101888.94;;;11.01;47.35
29825;BME280;16713;52.916;12.834;2023-04-30T08:14:02;101876.94;;;10.68;48.63
29825;BME280;16713;52.916;12.834;2023-04-30T08:16:29;101869.72;;;10.37;47.81
29825;BME280;16713;52.916;12.834;2023-04-30T08:18:56;101891.28;;;10.82;47.86
29825;BME280;16713;52.916;12.834;2023-04-30T08:21:22;101892.47;;;10.55;47.10
29825;BME280;16713;52.916;12.834;2023-04-30T08:23:49;101881.03;;;10.36;46.97
29825;BME280;16713;52.916;12.834;2023-04-30T08:26:16;101891.50;;;10.51;46.99
29825;BME280;16713;52.916;12.834;2023-04-30T08:28:42;101889.84;;;10.67;47.48
29825;BME280;16713;52.916;12.834;2023-04-30T08:31:09;101905.91;;;11.03;47.63
29825;BME280;16713;52.916;12.834;2023-04-30T08:33:35;101906.16;;;10.72;46.90
29825;BME280;16713;52.916;12.834;2023-04-30T08:36:02;101900.16;;;10.79;45.94
29825;BME280;16713;52.916;12.834;2023-04-30T08:38:28;101899.91;;;10.46;45.76
29825;BME280;16713;52.916;12.834;2023-04-30T08:41:15;101916.19;;;10.34;46.69
29825;BME280;16713;52.916;12.834;2023-04-30T08:43:42;101913.75;;;10.32;47.37
29825;BME280;16713;52.916;12.834;2023-04-30T08:46:11;101925.84;;;10.74;46.39
29825;BME280;16713;52.916;12.834;2023-04-30T08:48:40;101928.91;;;10.73;47.81
29825;BME280;16713;52.916;12.834;2023-04-30T08:51:06;101917.78;;;10.69;48.05
29825;BME280;16713;52.916;12.834;2023-04-30T08:53:34;101908.28;;;10.41;48.45
29825;BME280;16713;52.916;12.834;2023-04-30T08:56:02;101911.16;;;10.70;46.90
29825;BME280;16713;52.916;12.834;2023-04-30T08:58:29;101926.44;;;10.97;45.92
29825;BME280;16713;52.916;12.834;2023-04-30T09:00:57;101918.72;;;10.82;47.54
29825;BME280;16713;52.916;12.834;2023-04-30T09:03:25;101919.41;;;10.62;46.34
29825;BME280;16713;52.916;12.834;2023-04-30T09:05:51;101917.28;;;10.76;46.55
29825;BME280;16713;52.916;12.834;2023-04-30T09:08:18;101911.00;;;9.98;46.62
29825;BME280;16713;52.916;12.834;2023-04-30T09:11:25;101937.16;;;10.81;47.07
29825;BME280;16713;52.916;12.834;2023-04-30T09:14:00;101931.44;;;10.86;46.51
29825;BME280;16713;52.916;12.834;2023-04-30T09:16:28;101920.69;;;10.38;47.97
29825;BME280;16713;52.916;12.834;2023-04-30T09:18:58;101936.50;;;10.67;47.49
29825;BME280;16713;52.916;12.834;2023-04-30T09:21:32;101928.47;;;10.45;45.77
29825;BME280;16713;52.916;12.834;2023-04-30T09:24:01;101935.38;;;10.68;46.45
29825;BME280;16713;52.916;12.834;2023-04-30T09:26:33;101945.56;;;10.50;47.17
29825;BME280;16713;52.916;12.834;2023-04-30T09:29:00;101952.13;;;10.84;45.59
29825;BME280;16713;52.916;12.834;2023-04-30T09:31:33;101959.97;;;11.11;46.19
29825;BME280;16713;52.916;12.834;2023-04-30T09:34:02;101962.47;;;11.33;45.79
29825;BME280;16713;52.916;12.834;2023-04-30T09:36:28;101960.94;;;11.52;47.07
29825;BME280;16713;52.916;12.834;2023-04-30T09:39:05;101957.69;;;11.67;46.13
29825;BME280;16713;52.916;12.834;2023-04-30T09:41:35;101966.63;;;11.85;44.86
29825;BME280;16713;52.916;12.834;2023-04-30T09:44:02;101956.25;;;11.90;45.72
29825;BME280;16713;52.916;12.834;2023-04-30T09:46:30;101961.22;;;11.97;44.81
29825;BME280;16713;52.916;12.834;2023-04-30T09:48:58;101950.03;;;12.02;44.91
29825;BME280;16713;52.916;12.834;2023-04-30T09:51:25;101959.44;;;12.01;45.07
29825;BME280;16713;52.916;12.834;2023-04-30T09:53:53;101963.78;;;12.02;43.70
29825;BME280;16713;52.916;12.834;2023-04-30T09:56:22;101945.78;;;11.84;44.13
29825;BME280;16713;52.916;12.834;2023-04-30T09:58:54;101954.47;;;12.15;44.49
29825;BME280;16713;52.916;12.834;2023-04-30T10:01:21;101957.50;;;12.22;45.94
29825;BME280;16713;52.916;12.834;2023-04-30T10:03:48;101948.81;;;12.12;46.52
29825;BME280;16713;52.916;12.834;2023-04-30T10:06:15;101946.00;;;12.20;45.82
29825;BME280;16713;52.916;12.834;2023-04-30T10:08:50;101945.53;;;12.18;46.42
29825;BME280;16713;52.916;12.834;2023-04-30T10:11:20;101939.50;;;12.25;47.57
29825;BME280;16713;52.916;12.834;2023-04-30T10:14:00;101939.63;;;12.28;47.53
29825;BME280;16713;52.916;12.834;2023-04-30T10:16:41;101939.16;;;12.26;46.53
29825;BME280;16713;52.916;12.834;2023-04-30T10:19:13;101943.25;;;12.41;45.40
29825;BME280;16713;52.916;12.834;2023-04-30T10:21:44;101945.41;;;12.56;45.16
29825;BME280;16713;52.916;12.834;2023-04-30T10:24:12;101938.69;;;12.45;45.82
29825;BME280;16713;52.916;12.834;2023-04-30T10:26:40;101927.78;;;12.16;46.96
29825;BME280;16713;52.916;12.834;2023-04-30T10:29:07;101926.81;;;12.32;45.36
29825;BME280;16713;52.916;12.834;2023-04-30T10:31:35;101923.69;;;12.22;47.12
29825;BME280;16713;52.916;12.834;2023-04-30T10:37:03;101919.03;;;12.14;44.55
29825;BME280;16713;52.916;12.834;2023-04-30T10:39:31;101907.56;;;11.91;45.44
29825;BME280;16713;52.916;12.834;2023-04-30T10:42:02;101915.91;;;12.03;45.38
29825;BME280;16713;52.916;12.834;2023-04-30T10:44:33;101902.44;;;11.81;44.52
29825;BME280;16713;52.916;12.834;2023-04-30T10:47:03;101923.28;;;12.11;45.69
29825;BME280;16713;52.916;12.834;2023-04-30T10:49:30;101911.13;;;12.12;44.37
29825;BME280;16713;52.916;12.834;2023-04-30T10:52:01;101913.69;;;12.17;45.41
29825;BME280;16713;52.916;12.834;2023-04-30T10:54:34;101917.34;;;12.21;45.66
29825;BME280;16713;52.916;12.834;2023-04-30T11:02:38;101905.81;;;12.28;46.89
29825;BME280;16713;52.916;12.834;2023-04-30T11:07:59;101912.13;;;12.28;43.76
29825;BME280;16713;52.916;12.834;2023-04-30T11:10:31;101901.06;;;12.16;44.58
29825;BME280;16713;52.916;12.834;2023-04-30T11:13:03;101899.91;;;12.38;44.92
29825;BME280;16713;52.916;12.834;2023-04-30T11:15:48;101889.81;;;12.09;46.78
29825;BME280;16713;52.916;12.834;2023-04-30T11:18:14;101882.75;;;11.79;46.58
29825;BME280;16713;52.916;12.834;2023-04-30T11:20:48;101883.97;;;12.11;44.94
29825;BME280;16713;52.916;12.834;2023-04-30T11:23:20;101890.41;;;12.15;46.40
29825;BME280;16713;52.916;12.834;2023-04-30T11:26:06;101887.31;;;12.16;45.63
29825;BME280;16713;52.916;12.834;2023-04-30T11:28:32;101879.59;;;11.68;44.85
29825;BME280;16713;52.916;12.834;2023-04-30T11:31:03;101884.56;;;12.16;45.22
29825;BME280;16713;52.916;12.834;2023-04-30T11:33:30;101876.72;;;12.06;44.53
29825;BME280;16713;52.916;12.834;2023-04-30T11:35:59;101888.88;;;12.26;44.80
29825;BME280;16713;52.916;12.834;2023-04-30T11:38:44;101861.38;;;11.84;45.28
29825;BME280;16713;52.916;12.834;2023-04-30T11:41:11;101874.25;;;11.92;47.10
29825;BME280;16713;52.916;12.834;2023-04-30T11:43:38;101872.00;;;12.07;45.53
29825;BME280;16713;52.916;12.834;2023-04-30T11:46:12;101881.59;;;12.42;46.32
29825;BME280;16713;52.916;12.834;2023-04-30T11:48:43;101886.41;;;12.65;45.22
29825;BME280;16713;52.916;12.834;2023-04-30T11:51:17;101885.72;;;12.80;45.20
29825;BME280;16713;52.916;12.834;2023-04-30T11:53:49;101887.59;;;12.88;44.23
29825;BME280;16713;52.916;12.834;2023-04-30T11:56:20;101893.38;;;13.07;42.73
29825;BME280;16713;52.916;12.834;2023-04-30T11:58:48;101884.19;;;13.15;43.08
29825;BME280;16713;52.916;12.834;2023-04-30T12:01:15;101878.69;;;13.27;44.06
29825;BME280;16713;52.916;12.834;2023-04-30T12:03:47;101870.75;;;13.26;43.27
29825;BME280;16713;52.916;12.834;2023-04-30T12:06:24;101882.94;;;13.37;42.83
29825;BME280;16713;52.916;12.834;2023-04-30T12:08:53;101890.28;;;13.45;42.83
29825;BME280;16713;52.916;12.834;2023-04-30T12:11:30;101879.50;;;13.52;43.41
29825;BME280;16713;52.916;12.834;2023-04-30T12:14:00;101885.91;;;13.56;43.44
29825;BME280;16713;52.916;12.834;2023-04-30T12:16:44;101886.28;;;13.67;42.44
29825;BME280;16713;52.916;12.834;2023-04-30T12:19:21;101873.06;;;13.24;43.10
29825;BME280;16713;52.916;12.834;2023-04-30T12:21:50;101883.50;;;13.43;42.73
29825;BME280;16713;52.916;12.834;2023-04-30T12:24:20;101867.69;;;13.40;42.77
29825;BME280;16713;52.916;12.834;2023-04-30T12:26:46;101864.69;;;13.08;43.22
29825;BME280;16713;52.916;12.834;2023-04-30T12:29:17;101875.44;;;13.50;43.62
29825;BME280;16713;52.916;12.834;2023-04-30T12:31:44;101875.22;;;13.55;42.74
29825;BME280;16713;52.916;12.834;2023-04-30T12:34:14;101877.06;;;13.63;44.86
29825;BME280;16713;52.916;12.834;2023-04-30T12:36:41;101867.88;;;13.59;44.02
29825;BME280;16713;52.916;12.834;2023-04-30T12:39:12;101866.94;;;13.55;43.34
29825;BME280;16713;52.916;12.834;2023-04-30T12:41:46;101868.34;;;13.49;42.36
29825;BME280;16713;52.916;12.834;2023-04-30T12:44:24;101849.75;;;13.33;42.98
29825;BME280;16713;52.916;12.834;2023-04-30T12:46:53;101860.66;;;13.54;44.50
29825;BME280;16713;52.916;12.834;2023-04-30T12:49:33;101855.72;;;13.48;45.14
29825;BME280;16713;52.916;12.834;2023-04-30T12:52:10;101846.88;;;13.42;44.80
29825;BME280;16713;52.916;12.834;2023-04-30T12:54:38;101843.53;;;13.36;43.80
29825;BME280;16713;52.916;12.834;2023-04-30T12:57:07;101841.50;;;13.21;43.55
29825;BME280;16713;52.916;12.834;2023-04-30T12:59:37;101846.75;;;13.14;43.67
29825;BME280;16713;52.916;12.834;2023-04-30T13:04:35;101851.13;;;13.40;43.77
29825;BME280;16713;52.916;12.834;2023-04-30T13:07:02;101830.69;;;13.04;44.30
29825;BME280;16713;52.916;12.834;2023-04-30T13:09:32;101846.91;;;13.30;42.75
29825;BME280;16713;52.916;12.834;2023-04-30T13:11:58;101844.16;;;13.30;42.22
29825;BME280;16713;52.916;12.834;2023-04-30T13:14:25;101832.78;;;13.31;41.46
29825;BME280;16713;52.916;12.834;2023-04-30T13:16:52;101840.22;;;13.31;43.12